Hauptseite
METAR-TAF:

METAR-TAF

Flughäfen :

Flughafen Rijeka

Rijeka, Kroatien

Breite: 45-13N, Länge: 014-35E, Höhe: 85 m

Beobachtung

Neuester Wetterbericht von vor 24 Minuten, um 03:30 UTC
Wind 4 kt aus West/Nordwest, variierte zwischen West und Nord
Temperatur 24°C
Luftfeuchtigkeit 44%
Luftdruck 1015 hPa
Sichtweite 10 km oder mehr
keine Wolken unter 1500 m und keine Kumulonimbus oder Gewitterwolken

METAR: LDRI 160330Z 29004KT 260V350 CAVOK 24/11 Q1015

Zeit: 05:54 (03:54 UTC)

Prognose

Neuester Wetterbericht von vor 4 Stunden und 29 Minuten, um 23:25 UTC
Gültige Prognose vom 16 um 00 UTC bis 17 um 00 UTC
Wind 8 kt aus Nordost
Sichtweite 10 km oder mehr
keine Wolken unter 1500 m und keine Kumulonimbus oder Gewitterwolken

TAF: LDRI 152325Z 1600/1700 04008KT CAVOK TX30/1612Z TN23/1603Z

Wetterbeobachtungen und Prognosen von mehr als 4000 Flughäfen (METAR und TAF Bericht).

Die verfügbaren Stationen werden durch gelbe und rote Markierungen auf der Karte dargestellt.

Führen Sie die Maus auf sie, um den Namen der Station zu sehen.

Darauf klicken, um die Beobachtung von Wetterbeobachtungen und Prognosen zu sehen.

Um die Karte zu ändern : klicken Sie auf den grünen Tasten mit einem schwarzen Kreuz Zum Vergrößern, auf den grünen Button mit einem Gedankenstrich zu verkleinern, oder auf die grünen Pfeile für benachbarte Karten.


METAR-TAF: